sensor_id;sensor_type;location;lat;lon;timestamp;pressure;altitude;pressure_sealevel;temperature;humidity
22259;BME280;11298;46.034;14.496;2022-11-30T00:01:12;98469.84;;;4.25;88.93
22259;BME280;11298;46.034;14.496;2022-11-30T00:03:40;98469.84;;;4.25;89.19
22259;BME280;11298;46.034;14.496;2022-11-30T00:06:10;98457.75;;;4.21;89.19
22259;BME280;11298;46.034;14.496;2022-11-30T00:08:38;98457.75;;;4.21;89.77
22259;BME280;11298;46.034;14.496;2022-11-30T00:11:15;98460.44;;;4.21;89.78
22259;BME280;11298;46.034;14.496;2022-11-30T00:13:43;98462.97;;;4.15;89.63
22259;BME280;11298;46.034;14.496;2022-11-30T00:16:10;98463.47;;;4.18;89.73
22259;BME280;11298;46.034;14.496;2022-11-30T00:18:37;98456.25;;;4.11;90.06
22259;BME280;11298;46.034;14.496;2022-11-30T00:21:07;98467.84;;;4.11;90.29
22259;BME280;11298;46.034;14.496;2022-11-30T00:23:38;98467.16;;;4.09;90.52
22259;BME280;11298;46.034;14.496;2022-11-30T00:26:08;98465.47;;;4.08;90.35
22259;BME280;11298;46.034;14.496;2022-11-30T00:28:36;98467.16;;;4.09;90.63
22259;BME280;11298;46.034;14.496;2022-11-30T00:31:06;98462.78;;;4.08;90.77
22259;BME280;11298;46.034;14.496;2022-11-30T00:33:35;98461.28;;;4.06;91.02
22259;BME280;11298;46.034;14.496;2022-11-30T00:36:09;98459.59;;;4.04;90.83
22259;BME280;11298;46.034;14.496;2022-11-30T00:38:36;98460.44;;;4.05;91.13
22259;BME280;11298;46.034;14.496;2022-11-30T00:41:03;98476.06;;;4.10;91.19
22259;BME280;11298;46.034;14.496;2022-11-30T00:43:31;98471.88;;;4.07;90.92
22259;BME280;11298;46.034;14.496;2022-11-30T00:45:58;98481.28;;;4.11;90.87
22259;BME280;11298;46.034;14.496;2022-11-30T00:48:25;98480.28;;;4.12;90.93
22259;BME280;11298;46.034;14.496;2022-11-30T00:50:52;98481.94;;;4.13;90.77
22259;BME280;11298;46.034;14.496;2022-11-30T00:53:20;98468.69;;;4.12;90.68
22259;BME280;11298;46.034;14.496;2022-11-30T00:55:47;98483.28;;;4.17;90.75
22259;BME280;11298;46.034;14.496;2022-11-30T00:58:14;98488.31;;;4.20;90.63
22259;BME280;11298;46.034;14.496;2022-11-30T01:00:42;98489.16;;;4.21;90.47
22259;BME280;11298;46.034;14.496;2022-11-30T01:03:09;98490.00;;;4.21;90.30
22259;BME280;11298;46.034;14.496;2022-11-30T01:05:37;98485.81;;;4.27;89.94
22259;BME280;11298;46.034;14.496;2022-11-30T01:08:07;98483.97;;;4.27;89.91
22259;BME280;11298;46.034;14.496;2022-11-30T01:10:36;98482.28;;;4.26;89.56
22259;BME280;11298;46.034;14.496;2022-11-30T01:13:03;98485.97;;;4.25;89.59
22259;BME280;11298;46.034;14.496;2022-11-30T01:15:34;98494.03;;;4.33;89.54
22259;BME280;11298;46.034;14.496;2022-11-30T01:18:01;98487.31;;;4.29;88.99
22259;BME280;11298;46.034;14.496;2022-11-30T01:20:28;98479.94;;;4.31;88.98
22259;BME280;11298;46.034;14.496;2022-11-30T01:22:55;98485.81;;;4.35;88.81
22259;BME280;11298;46.034;14.496;2022-11-30T01:25:22;98486.66;;;4.35;88.26
22259;BME280;11298;46.034;14.496;2022-11-30T01:27:50;98491.03;;;4.36;88.22
22259;BME280;11298;46.034;14.496;2022-11-30T01:30:17;98487.50;;;4.36;88.02
22259;BME280;11298;46.034;14.496;2022-11-30T01:32:44;98486.31;;;4.38;87.95
22259;BME280;11298;46.034;14.496;2022-11-30T01:35:11;98479.94;;;4.40;87.71
22259;BME280;11298;46.034;14.496;2022-11-30T01:37:38;98488.50;;;4.43;87.69
22259;BME280;11298;46.034;14.496;2022-11-30T01:40:06;98482.28;;;4.43;87.54
22259;BME280;11298;46.034;14.496;2022-11-30T01:42:34;98484.47;;;4.47;87.29
22259;BME280;11298;46.034;14.496;2022-11-30T01:45:05;98474.56;;;4.48;87.19
22259;BME280;11298;46.034;14.496;2022-11-30T01:47:40;98482.63;;;4.48;86.91
22259;BME280;11298;46.034;14.496;2022-11-30T01:50:20;98484.16;;;4.50;86.63
22259;BME280;11298;46.034;14.496;2022-11-30T01:52:52;98489.31;;;4.52;86.22
22259;BME280;11298;46.034;14.496;2022-11-30T01:55:39;98486.47;;;4.53;86.20
22259;BME280;11298;46.034;14.496;2022-11-30T01:58:11;98490.00;;;4.54;85.85
22259;BME280;11298;46.034;14.496;2022-11-30T02:00:43;98490.00;;;4.54;85.59
22259;BME280;11298;46.034;14.496;2022-11-30T02:03:16;98487.66;;;4.59;85.60
22259;BME280;11298;46.034;14.496;2022-11-30T02:05:47;98485.13;;;4.57;85.35
22259;BME280;11298;46.034;14.496;2022-11-30T02:08:14;98484.28;;;4.57;84.92
22259;BME280;11298;46.034;14.496;2022-11-30T02:10:46;98486.97;;;4.57;84.50
22259;BME280;11298;46.034;14.496;2022-11-30T02:16:36;98494.03;;;4.58;84.47
22259;BME280;11298;46.034;14.496;2022-11-30T02:21:52;98483.94;;;4.60;83.86
22259;BME280;11298;46.034;14.496;2022-11-30T02:28:02;98473.53;;;4.57;83.80
22259;BME280;11298;46.034;14.496;2022-11-30T02:30:41;98471.84;;;4.56;83.64
22259;BME280;11298;46.034;14.496;2022-11-30T02:33:13;98467.31;;;4.56;83.37
22259;BME280;11298;46.034;14.496;2022-11-30T02:35:45;98475.22;;;4.58;83.30
22259;BME280;11298;46.034;14.496;2022-11-30T02:38:21;98470.34;;;4.61;83.21
22259;BME280;11298;46.034;14.496;2022-11-30T02:40:49;98465.81;;;4.62;83.06
22259;BME280;11298;46.034;14.496;2022-11-30T02:43:19;98460.41;;;4.62;82.61
22259;BME280;11298;46.034;14.496;2022-11-30T02:48:49;98446.31;;;4.60;82.39
22259;BME280;11298;46.034;14.496;2022-11-30T02:51:20;98458.41;;;4.64;82.22
22259;BME280;11298;46.034;14.496;2022-11-30T02:53:48;98444.63;;;4.59;82.17
22259;BME280;11298;46.034;14.496;2022-11-30T02:56:16;98439.91;;;4.61;81.96
22259;BME280;11298;46.034;14.496;2022-11-30T02:58:44;98443.09;;;4.64;82.04
22259;BME280;11298;46.034;14.496;2022-11-30T03:01:11;98445.63;;;4.66;81.76
22259;BME280;11298;46.034;14.496;2022-11-30T03:03:38;98450.84;;;4.67;81.74
22259;BME280;11298;46.034;14.496;2022-11-30T03:06:05;98447.81;;;4.70;81.86
22259;BME280;11298;46.034;14.496;2022-11-30T03:08:32;98442.78;;;4.67;81.55
22259;BME280;11298;46.034;14.496;2022-11-30T03:11:03;98447.13;;;4.68;81.41
22259;BME280;11298;46.034;14.496;2022-11-30T03:13:31;98455.22;;;4.68;81.23
22259;BME280;11298;46.034;14.496;2022-11-30T03:16:05;98445.63;;;4.66;80.81
22259;BME280;11298;46.034;14.496;2022-11-30T03:18:33;98438.06;;;4.61;81.00
22259;BME280;11298;46.034;14.496;2022-11-30T03:20:59;98448.31;;;4.66;80.55
22259;BME280;11298;46.034;14.496;2022-11-30T03:23:26;98449.00;;;4.68;80.61
22259;BME280;11298;46.034;14.496;2022-11-30T03:25:58;98442.94;;;4.66;80.56
22259;BME280;11298;46.034;14.496;2022-11-30T03:28:25;98452.34;;;4.70;80.65
22259;BME280;11298;46.034;14.496;2022-11-30T03:30:52;98454.03;;;4.71;80.54
22259;BME280;11298;46.034;14.496;2022-11-30T03:33:19;98450.34;;;4.72;80.55
22259;BME280;11298;46.034;14.496;2022-11-30T03:35:46;98447.47;;;4.74;80.42
22259;BME280;11298;46.034;14.496;2022-11-30T03:38:13;98441.59;;;4.70;80.44
22259;BME280;11298;46.034;14.496;2022-11-30T03:40:40;98437.88;;;4.71;80.08
22259;BME280;11298;46.034;14.496;2022-11-30T03:43:07;98450.34;;;4.72;80.20
22259;BME280;11298;46.034;14.496;2022-11-30T03:45:34;98446.13;;;4.69;80.00
22259;BME280;11298;46.034;14.496;2022-11-30T03:48:01;98449.00;;;4.68;80.29
22259;BME280;11298;46.034;14.496;2022-11-30T03:50:28;98436.56;;;4.67;80.00
22259;BME280;11298;46.034;14.496;2022-11-30T03:52:55;98448.47;;;4.72;79.97
22259;BME280;11298;46.034;14.496;2022-11-30T03:55:22;98452.34;;;4.70;80.05
22259;BME280;11298;46.034;14.496;2022-11-30T03:57:49;98446.97;;;4.70;79.97
22259;BME280;11298;46.034;14.496;2022-11-30T04:00:16;98452.00;;;4.73;79.71
22259;BME280;11298;46.034;14.496;2022-11-30T04:02:44;98448.97;;;4.76;79.89
22259;BME280;11298;46.034;14.496;2022-11-30T04:05:11;98445.94;;;4.79;79.88
22259;BME280;11298;46.034;14.496;2022-11-30T04:07:39;98444.28;;;4.78;80.04
22259;BME280;11298;46.034;14.496;2022-11-30T04:10:06;98447.97;;;4.77;79.65
22259;BME280;11298;46.034;14.496;2022-11-30T04:12:34;98447.97;;;4.77;79.69
22259;BME280;11298;46.034;14.496;2022-11-30T04:15:01;98424.78;;;4.60;79.63
22259;BME280;11298;46.034;14.496;2022-11-30T04:17:29;98448.66;;;4.79;79.50
22259;BME280;11298;46.034;14.496;2022-11-30T04:19:56;98444.94;;;4.80;79.71
22259;BME280;11298;46.034;14.496;2022-11-30T04:22:23;98458.06;;;4.83;79.75
22259;BME280;11298;46.034;14.496;2022-11-30T04:24:50;98461.75;;;4.82;79.58
22259;BME280;11298;46.034;14.496;2022-11-30T04:27:17;98454.69;;;4.81;79.73
22259;BME280;11298;46.034;14.496;2022-11-30T04:29:44;98457.38;;;4.81;79.44
22259;BME280;11298;46.034;14.496;2022-11-30T04:32:11;98455.88;;;4.79;79.56
22259;BME280;11298;46.034;14.496;2022-11-30T04:34:38;98454.53;;;4.83;79.43
22259;BME280;11298;46.034;14.496;2022-11-30T04:37:05;98451.16;;;4.81;79.49
22259;BME280;11298;46.034;14.496;2022-11-30T04:39:33;98442.53;;;4.85;79.51
22259;BME280;11298;46.034;14.496;2022-11-30T04:42:00;98449.81;;;4.85;79.30
22259;BME280;11298;46.034;14.496;2022-11-30T04:44:27;98447.75;;;4.87;79.59
22259;BME280;11298;46.034;14.496;2022-11-30T04:46:54;98452.81;;;4.90;79.57
22259;BME280;11298;46.034;14.496;2022-11-30T04:49:21;98447.06;;;4.93;79.39
22259;BME280;11298;46.034;14.496;2022-11-30T04:51:48;98447.56;;;4.96;79.42
22259;BME280;11298;46.034;14.496;2022-11-30T04:54:15;98451.94;;;4.97;79.31
22259;BME280;11298;46.034;14.496;2022-11-30T04:56:42;98444.72;;;4.98;79.28
22259;BME280;11298;46.034;14.496;2022-11-30T04:59:09;98455.31;;;4.99;79.29
22259;BME280;11298;46.034;14.496;2022-11-30T05:01:36;98459.34;;;5.03;79.51
22259;BME280;11298;46.034;14.496;2022-11-30T05:04:03;98455.63;;;5.04;79.38
22259;BME280;11298;46.034;14.496;2022-11-30T05:06:30;98459.00;;;5.07;79.35
22259;BME280;11298;46.034;14.496;2022-11-30T05:08:57;98445.22;;;5.01;79.54
22259;BME280;11298;46.034;14.496;2022-11-30T05:11:24;98451.59;;;5.09;79.64
22259;BME280;11298;46.034;14.496;2022-11-30T05:13:51;98455.97;;;5.10;79.77
22259;BME280;11298;46.034;14.496;2022-11-30T05:16:18;98458.47;;;5.11;79.38
22259;BME280;11298;46.034;14.496;2022-11-30T05:18:45;98456.63;;;5.12;79.47
22259;BME280;11298;46.034;14.496;2022-11-30T05:21:12;98455.97;;;5.10;79.42
22259;BME280;11298;46.034;14.496;2022-11-30T05:23:39;98453.59;;;5.07;79.41
22259;BME280;11298;46.034;14.496;2022-11-30T05:26:07;98458.66;;;5.10;79.16
22259;BME280;11298;46.034;14.496;2022-11-30T05:28:34;98453.78;;;5.05;79.07
22259;BME280;11298;46.034;14.496;2022-11-30T05:31:03;98462.69;;;5.05;79.18
22259;BME280;11298;46.034;14.496;2022-11-30T05:33:31;98465.38;;;5.05;78.84
22259;BME280;11298;46.034;14.496;2022-11-30T05:35:58;98468.06;;;5.05;78.95
22259;BME280;11298;46.034;14.496;2022-11-30T05:38:29;98464.53;;;5.05;78.80
22259;BME280;11298;46.034;14.496;2022-11-30T05:40:59;98463.53;;;5.06;78.75
22259;BME280;11298;46.034;14.496;2022-11-30T05:43:27;98469.25;;;5.11;78.84
22259;BME280;11298;46.034;14.496;2022-11-30T05:46:01;98470.75;;;5.14;78.56
22259;BME280;11298;46.034;14.496;2022-11-30T05:48:29;98473.44;;;5.14;78.47
22259;BME280;11298;46.034;14.496;2022-11-30T05:51:07;98479.50;;;5.16;78.40
22259;BME280;11298;46.034;14.496;2022-11-30T05:53:35;98479.16;;;5.19;78.62
22259;BME280;11298;46.034;14.496;2022-11-30T05:56:08;98476.25;;;5.20;78.20
22259;BME280;11298;46.034;14.496;2022-11-30T05:58:35;98480.84;;;5.20;78.44
22259;BME280;11298;46.034;14.496;2022-11-30T06:01:03;98471.72;;;5.21;78.26
22259;BME280;11298;46.034;14.496;2022-11-30T06:03:32;98478.25;;;5.26;78.31
22259;BME280;11298;46.034;14.496;2022-11-30T06:05:59;98484.63;;;5.33;78.18
22259;BME280;11298;46.034;14.496;2022-11-30T06:08:27;98486.97;;;5.36;78.19
22259;BME280;11298;46.034;14.496;2022-11-30T06:10:59;98478.72;;;5.38;77.99
22259;BME280;11298;46.034;14.496;2022-11-30T06:13:26;98476.03;;;5.38;78.38
22259;BME280;11298;46.034;14.496;2022-11-30T06:15:58;98476.22;;;5.36;78.35
22259;BME280;11298;46.034;14.496;2022-11-30T06:18:25;98474.38;;;5.29;77.97
22259;BME280;11298;46.034;14.496;2022-11-30T06:20:52;98477.75;;;5.31;78.04
22259;BME280;11298;46.034;14.496;2022-11-30T06:23:19;98485.16;;;5.29;78.06
22259;BME280;11298;46.034;14.496;2022-11-30T06:25:46;98489.19;;;5.25;78.00
22259;BME280;11298;46.034;14.496;2022-11-30T06:28:13;98488.53;;;5.23;78.10
22259;BME280;11298;46.034;14.496;2022-11-30T06:30:40;98497.28;;;5.25;78.11
22259;BME280;11298;46.034;14.496;2022-11-30T06:33:07;98493.25;;;5.21;78.00
22259;BME280;11298;46.034;14.496;2022-11-30T06:35:34;98485.88;;;5.15;77.86
22259;BME280;11298;46.034;14.496;2022-11-30T06:38:01;98492.59;;;5.19;77.91
22259;BME280;11298;46.034;14.496;2022-11-30T06:40:28;98500.31;;;5.22;77.71
22259;BME280;11298;46.034;14.496;2022-11-30T06:42:55;98495.75;;;5.22;77.64
22259;BME280;11298;46.034;14.496;2022-11-30T06:45:22;98501.66;;;5.26;77.94
22259;BME280;11298;46.034;14.496;2022-11-30T06:47:49;98502.66;;;5.25;77.66
22259;BME280;11298;46.034;14.496;2022-11-30T06:50:16;98512.41;;;5.26;77.85
22259;BME280;11298;46.034;14.496;2022-11-30T06:52:43;98510.38;;;5.28;77.48
22259;BME280;11298;46.034;14.496;2022-11-30T06:55:10;98512.41;;;5.26;77.95
22259;BME280;11298;46.034;14.496;2022-11-30T06:57:37;98516.13;;;5.25;77.92
22259;BME280;11298;46.034;14.496;2022-11-30T07:00:05;98518.13;;;5.23;77.63
22259;BME280;11298;46.034;14.496;2022-11-30T07:02:32;98513.47;;;5.17;77.74
22259;BME280;11298;46.034;14.496;2022-11-30T07:05:00;98516.16;;;5.17;77.89
22259;BME280;11298;46.034;14.496;2022-11-30T07:07:28;98521.53;;;5.17;77.75
22259;BME280;11298;46.034;14.496;2022-11-30T07:09:56;98526.59;;;5.20;77.94
22259;BME280;11298;46.034;14.496;2022-11-30T07:12:24;98512.47;;;5.18;77.85
22259;BME280;11298;46.034;14.496;2022-11-30T07:14:51;98516.47;;;5.22;78.16
22259;BME280;11298;46.034;14.496;2022-11-30T07:17:21;98513.94;;;5.20;78.21
22259;BME280;11298;46.034;14.496;2022-11-30T07:19:48;98507.25;;;5.16;78.20
22259;BME280;11298;46.034;14.496;2022-11-30T07:22:15;98510.59;;;5.18;78.15
22259;BME280;11298;46.034;14.496;2022-11-30T07:24:42;98511.44;;;5.19;78.22
22259;BME280;11298;46.034;14.496;2022-11-30T07:27:28;98507.38;;;5.23;78.19
22259;BME280;11298;46.034;14.496;2022-11-30T07:29:54;98507.38;;;5.23;78.18
22259;BME280;11298;46.034;14.496;2022-11-30T07:32:21;98513.25;;;5.26;78.43
22259;BME280;11298;46.034;14.496;2022-11-30T07:34:48;98507.88;;;5.26;78.11
22259;BME280;11298;46.034;14.496;2022-11-30T07:37:16;98505.00;;;5.28;78.15
22259;BME280;11298;46.034;14.496;2022-11-30T07:39:43;98512.06;;;5.29;78.38
22259;BME280;11298;46.034;14.496;2022-11-30T07:42:10;98511.41;;;5.27;78.49
22259;BME280;11298;46.034;14.496;2022-11-30T07:44:37;98505.19;;;5.26;78.28
22259;BME280;11298;46.034;14.496;2022-11-30T07:47:04;98503.31;;;5.27;78.13
22259;BME280;11298;46.034;14.496;2022-11-30T07:49:31;98513.25;;;5.26;78.38
22259;BME280;11298;46.034;14.496;2022-11-30T07:51:58;98511.22;;;5.28;77.98
22259;BME280;11298;46.034;14.496;2022-11-30T07:54:25;98502.31;;;5.28;77.99
22259;BME280;11298;46.034;14.496;2022-11-30T07:56:52;98500.97;;;5.32;78.12
22259;BME280;11298;46.034;14.496;2022-11-30T07:59:19;98501.94;;;5.39;78.19
22259;BME280;11298;46.034;14.496;2022-11-30T08:01:46;98506.66;;;5.45;78.29
22259;BME280;11298;46.034;14.496;2022-11-30T08:04:13;98508.66;;;5.51;78.12
22259;BME280;11298;46.034;14.496;2022-11-30T08:06:41;98512.66;;;5.55;77.72
22259;BME280;11298;46.034;14.496;2022-11-30T08:09:12;98509.59;;;5.58;77.67
22259;BME280;11298;46.034;14.496;2022-11-30T08:11:47;98509.44;;;5.60;77.66
22259;BME280;11298;46.034;14.496;2022-11-30T08:14:14;98501.19;;;5.61;77.44
22259;BME280;11298;46.034;14.496;2022-11-30T08:16:42;98507.75;;;5.59;77.40
22259;BME280;11298;46.034;14.496;2022-11-30T08:19:10;98517.81;;;5.65;77.44
22259;BME280;11298;46.034;14.496;2022-11-30T08:21:37;98511.25;;;5.67;77.19
22259;BME280;11298;46.034;14.496;2022-11-30T08:24:04;98513.28;;;5.65;76.90
22259;BME280;11298;46.034;14.496;2022-11-30T08:26:32;98518.00;;;5.63;76.77
22259;BME280;11298;46.034;14.496;2022-11-30T08:29:00;98515.31;;;5.63;76.79
22259;BME280;11298;46.034;14.496;2022-11-30T08:31:30;98512.44;;;5.65;76.71
22259;BME280;11298;46.034;14.496;2022-11-30T08:34:06;98519.00;;;5.62;76.58
22259;BME280;11298;46.034;14.496;2022-11-30T08:36:33;98520.69;;;5.63;76.46
22259;BME280;11298;46.034;14.496;2022-11-30T08:39:02;98527.94;;;5.63;76.59
22259;BME280;11298;46.034;14.496;2022-11-30T08:41:31;98523.41;;;5.55;77.16
22259;BME280;11298;46.034;14.496;2022-11-30T08:43:58;98533.56;;;5.45;77.55
22259;BME280;11298;46.034;14.496;2022-11-30T08:46:26;98521.13;;;5.36;78.16
22259;BME280;11298;46.034;14.496;2022-11-30T08:49:13;98524.38;;;5.23;78.61
22259;BME280;11298;46.034;14.496;2022-11-30T08:51:53;98525.53;;;5.21;79.00
22259;BME280;11298;46.034;14.496;2022-11-30T08:54:41;98532.59;;;5.22;79.30
22259;BME280;11298;46.034;14.496;2022-11-30T08:57:12;98524.91;;;5.19;79.65
22259;BME280;11298;46.034;14.496;2022-11-30T08:59:39;98528.44;;;5.11;80.00
22259;BME280;11298;46.034;14.496;2022-11-30T09:02:09;98533.00;;;5.11;80.42
22259;BME280;11298;46.034;14.496;2022-11-30T09:04:36;98534.16;;;5.16;80.24
22259;BME280;11298;46.034;14.496;2022-11-30T09:07:03;98531.59;;;5.23;80.24
22259;BME280;11298;46.034;14.496;2022-11-30T09:09:30;98531.94;;;5.28;80.55
22259;BME280;11298;46.034;14.496;2022-11-30T09:11:58;98530.75;;;5.30;80.50
22259;BME280;11298;46.034;14.496;2022-11-30T09:14:25;98534.09;;;5.32;80.66
22259;BME280;11298;46.034;14.496;2022-11-30T09:16:53;98533.25;;;5.32;80.80
22259;BME280;11298;46.034;14.496;2022-11-30T09:19:20;98523.00;;;5.27;81.18
22259;BME280;11298;46.034;14.496;2022-11-30T09:21:48;98537.63;;;5.33;81.53
22259;BME280;11298;46.034;14.496;2022-11-30T09:24:19;98530.91;;;5.37;81.66
22259;BME280;11298;46.034;14.496;2022-11-30T09:26:46;98532.25;;;5.41;81.65
22259;BME280;11298;46.034;14.496;2022-11-30T09:29:13;98534.06;;;5.49;81.53
22259;BME280;11298;46.034;14.496;2022-11-30T09:31:40;98532.88;;;5.51;81.40
22259;BME280;11298;46.034;14.496;2022-11-30T09:34:09;98527.78;;;5.56;81.68
22259;BME280;11298;46.034;14.496;2022-11-30T09:36:36;98520.94;;;5.54;81.51
22259;BME280;11298;46.034;14.496;2022-11-30T09:39:03;98529.47;;;5.57;81.32
22259;BME280;11298;46.034;14.496;2022-11-30T09:45:04;98529.28;;;5.59;81.38
22259;BME280;11298;46.034;14.496;2022-11-30T09:50:02;98520.78;;;5.47;81.36
22259;BME280;11298;46.034;14.496;2022-11-30T09:52:36;98529.88;;;5.46;81.53
22259;BME280;11298;46.034;14.496;2022-11-30T09:55:12;98527.16;;;5.54;81.67
22259;BME280;11298;46.034;14.496;2022-11-30T09:57:44;98531.16;;;5.58;81.53
22259;BME280;11298;46.034;14.496;2022-11-30T10:00:16;98526.09;;;5.63;81.38
22259;BME280;11298;46.034;14.496;2022-11-30T10:02:44;98522.38;;;5.64;81.70
22259;BME280;11298;46.034;14.496;2022-11-30T10:05:21;98529.63;;;5.64;81.34
22259;BME280;11298;46.034;14.496;2022-11-30T10:08:11;98521.03;;;5.60;81.46
22259;BME280;11298;46.034;14.496;2022-11-30T10:16:55;98524.06;;;5.65;80.56
22259;BME280;11298;46.034;14.496;2022-11-30T10:20:03;98528.25;;;5.68;80.24
22259;BME280;11298;46.034;14.496;2022-11-30T10:22:51;98532.00;;;5.59;80.26
22259;BME280;11298;46.034;14.496;2022-11-30T10:25:42;98512.03;;;5.45;80.58
22259;BME280;11298;46.034;14.496;2022-11-30T10:28:17;98522.97;;;5.44;81.15
22259;BME280;11298;46.034;14.496;2022-11-30T10:31:09;98526.50;;;5.44;81.37
22259;BME280;11298;46.034;14.496;2022-11-30T10:33:44;98512.38;;;5.42;81.53
22259;BME280;11298;46.034;14.496;2022-11-30T10:36:23;98518.75;;;5.49;81.30
22259;BME280;11298;46.034;14.496;2022-11-30T10:39:14;98522.13;;;5.43;81.62
22259;BME280;11298;46.034;14.496;2022-11-30T10:41:49;98519.97;;;5.38;81.69
22259;BME280;11298;46.034;14.496;2022-11-30T10:44:40;98517.44;;;5.29;81.97
22259;BME280;11298;46.034;14.496;2022-11-30T10:47:19;98506.53;;;5.22;82.31
22259;BME280;11298;46.034;14.496;2022-11-30T10:49:50;98511.78;;;5.16;82.64
22259;BME280;11298;46.034;14.496;2022-11-30T10:52:25;98504.06;;;5.04;83.02
22259;BME280;11298;46.034;14.496;2022-11-30T10:54:55;98504.91;;;5.05;83.23
22259;BME280;11298;46.034;14.496;2022-11-30T10:57:30;98511.31;;;5.04;83.38
22259;BME280;11298;46.034;14.496;2022-11-30T10:59:59;98508.44;;;4.97;83.79
22259;BME280;11298;46.034;14.496;2022-11-30T11:02:41;98496.19;;;4.95;83.89
22259;BME280;11298;46.034;14.496;2022-11-30T11:07:55;98452.00;;;4.81;83.95
22259;BME280;11298;46.034;14.496;2022-11-30T11:10:44;98490.94;;;5.01;84.00
22259;BME280;11298;46.034;14.496;2022-11-30T11:13:18;98486.06;;;5.05;83.86
22259;BME280;11298;46.034;14.496;2022-11-30T11:15:57;98488.41;;;5.08;84.09
22259;BME280;11298;46.034;14.496;2022-11-30T11:18:30;98483.38;;;5.13;84.10
22259;BME280;11298;46.034;14.496;2022-11-30T11:21:17;98497.16;;;5.18;84.16
22259;BME280;11298;46.034;14.496;2022-11-30T11:23:46;98493.63;;;5.18;84.08
22259;BME280;11298;46.034;14.496;2022-11-30T11:26:18;98494.28;;;5.20;84.40
22259;BME280;11298;46.034;14.496;2022-11-30T11:28:48;98490.75;;;5.19;84.28
22259;BME280;11298;46.034;14.496;2022-11-30T11:31:41;98486.84;;;5.22;84.30
22259;BME280;11298;46.034;14.496;2022-11-30T11:34:25;98489.19;;;5.25;84.51
22259;BME280;11298;46.034;14.496;2022-11-30T11:37:25;98479.28;;;5.25;84.57
22259;BME280;11298;46.034;14.496;2022-11-30T11:42:40;98478.44;;;5.25;84.67
22259;BME280;11298;46.034;14.496;2022-11-30T11:48:01;98477.41;;;5.26;84.79
22259;BME280;11298;46.034;14.496;2022-11-30T11:50:34;98473.72;;;5.27;84.86
22259;BME280;11298;46.034;14.496;2022-11-30T11:53:42;98476.56;;;5.25;84.95
22259;BME280;11298;46.034;14.496;2022-11-30T11:56:30;98471.84;;;5.27;84.81
22259;BME280;11298;46.034;14.496;2022-11-30T11:59:12;98467.81;;;5.31;84.82
22259;BME280;11298;46.034;14.496;2022-11-30T12:04:56;98477.41;;;5.34;84.88
22259;BME280;11298;46.034;14.496;2022-11-30T12:13:21;98470.34;;;5.33;85.06
22259;BME280;11298;46.034;14.496;2022-11-30T12:21:15;98468.94;;;5.45;84.96
22259;BME280;11298;46.034;14.496;2022-11-30T12:26:40;98456.84;;;5.41;85.06
22259;BME280;11298;46.034;14.496;2022-11-30T12:29:52;98457.00;;;5.48;85.15
22259;BME280;11298;46.034;14.496;2022-11-30T12:32:38;98444.41;;;5.40;85.09
22259;BME280;11298;46.034;14.496;2022-11-30T12:36:12;98458.16;;;5.53;84.90
22259;BME280;11298;46.034;14.496;2022-11-30T12:52:47;98448.91;;;5.79;83.83
22259;BME280;11298;46.034;14.496;2022-11-30T13:05:59;98438.84;;;5.72;84.20
22259;BME280;11298;46.034;14.496;2022-11-30T13:11:35;98445.84;;;5.82;83.96
22259;BME280;11298;46.034;14.496;2022-11-30T13:14:08;98447.50;;;5.91;83.85
22259;BME280;11298;46.034;14.496;2022-11-30T13:16:38;98437.19;;;5.94;83.25
22259;BME280;11298;46.034;14.496;2022-11-30T13:21:57;98439.84;;;6.02;82.26
22259;BME280;11298;46.034;14.496;2022-11-30T13:24:33;98441.34;;;6.05;81.71
22259;BME280;11298;46.034;14.496;2022-11-30T13:32:16;98439.44;;;6.14;80.77
22259;BME280;11298;46.034;14.496;2022-11-30T13:38:04;98439.25;;;6.15;79.91
22259;BME280;11298;46.034;14.496;2022-11-30T13:41:00;98436.75;;;6.14;79.93
22259;BME280;11298;46.034;14.496;2022-11-30T13:43:47;98436.56;;;6.15;79.77
22259;BME280;11298;46.034;14.496;2022-11-30T13:46:20;98435.72;;;6.15;79.27
22259;BME280;11298;46.034;14.496;2022-11-30T13:49:18;98437.59;;;6.14;79.22
22259;BME280;11298;46.034;14.496;2022-11-30T13:51:46;98441.66;;;6.10;79.58
22259;BME280;11298;46.034;14.496;2022-11-30T14:00:00;98447.50;;;5.91;80.82
22259;BME280;11298;46.034;14.496;2022-11-30T14:08:08;98443.81;;;5.84;81.50
22259;BME280;11298;46.034;14.496;2022-11-30T14:10:41;98437.78;;;5.82;81.55
22259;BME280;11298;46.034;14.496;2022-11-30T14:26:21;98440.03;;;5.70;81.83
22259;BME280;11298;46.034;14.496;2022-11-30T14:31:38;98433.44;;;5.72;81.40
22259;BME280;11298;46.034;14.496;2022-11-30T14:34:21;98441.34;;;5.74;81.56
22259;BME280;11298;46.034;14.496;2022-11-30T14:36:55;98434.78;;;5.77;81.58
22259;BME280;11298;46.034;14.496;2022-11-30T14:39:34;98423.50;;;5.73;81.34
22259;BME280;11298;46.034;14.496;2022-11-30T14:42:04;98433.41;;;5.81;81.58
22259;BME280;11298;46.034;14.496;2022-11-30T14:44:38;98433.75;;;5.78;81.68
22259;BME280;11298;46.034;14.496;2022-11-30T14:47:33;98432.03;;;5.85;81.88
22259;BME280;11298;46.034;14.496;2022-11-30T14:50:03;98435.75;;;5.84;81.89
22259;BME280;11298;46.034;14.496;2022-11-30T14:52:53;98431.06;;;5.78;82.02
22259;BME280;11298;46.034;14.496;2022-11-30T14:55:27;98435.81;;;5.67;82.34
22259;BME280;11298;46.034;14.496;2022-11-30T15:00:47;98433.63;;;5.40;82.82
22259;BME280;11298;46.034;14.496;2022-11-30T15:03:28;98444.94;;;5.27;83.24
22259;BME280;11298;46.034;14.496;2022-11-30T15:06:03;98445.16;;;5.18;83.89
22259;BME280;11298;46.034;14.496;2022-11-30T15:08:40;98441.66;;;5.09;84.23
22259;BME280;11298;46.034;14.496;2022-11-30T15:11:12;98447.72;;;5.11;84.41
22259;BME280;11298;46.034;14.496;2022-11-30T15:13:45;98447.22;;;5.08;84.64
22259;BME280;11298;46.034;14.496;2022-11-30T15:16:20;98437.66;;;4.97;84.82
22259;BME280;11298;46.034;14.496;2022-11-30T15:18:48;98420.38;;;4.83;84.82
22259;BME280;11298;46.034;14.496;2022-11-30T15:21:22;98442.53;;;5.01;85.01